sensor_id;sensor_type;location;lat;lon;timestamp;pressure;altitude;pressure_sealevel;temperature;humidity
10587;BME280;5341;47.606;7.576;2024-02-21T00:01:53;99916.84;;;11.62;59.71
10587;BME280;5341;47.606;7.576;2024-02-21T00:04:20;99908.97;;;11.61;59.82
10587;BME280;5341;47.606;7.576;2024-02-21T00:06:48;99905.47;;;11.60;59.87
10587;BME280;5341;47.606;7.576;2024-02-21T00:09:15;99908.97;;;11.61;59.58
10587;BME280;5341;47.606;7.576;2024-02-21T00:11:42;99904.63;;;11.60;59.88
10587;BME280;5341;47.606;7.576;2024-02-21T00:14:09;99904.78;;;11.58;59.58
10587;BME280;5341;47.606;7.576;2024-02-21T00:16:38;99911.16;;;11.57;59.80
10587;BME280;5341;47.606;7.576;2024-02-21T00:19:06;99898.75;;;11.56;60.13
10587;BME280;5341;47.606;7.576;2024-02-21T00:21:33;99896.09;;;11.56;59.76
10587;BME280;5341;47.606;7.576;2024-02-21T00:24:00;99896.25;;;11.55;59.88
10587;BME280;5341;47.606;7.576;2024-02-21T00:26:28;99890.88;;;11.55;59.79
10587;BME280;5341;47.606;7.576;2024-02-21T00:28:55;99900.75;;;11.54;60.08
10587;BME280;5341;47.606;7.576;2024-02-21T00:31:23;99896.56;;;11.52;60.21
10587;BME280;5341;47.606;7.576;2024-02-21T00:33:52;99909.13;;;11.51;60.20
10587;BME280;5341;47.606;7.576;2024-02-21T00:36:19;99913.78;;;11.49;59.73
10587;BME280;5341;47.606;7.576;2024-02-21T00:38:47;99911.09;;;11.49;60.22
10587;BME280;5341;47.606;7.576;2024-02-21T00:41:14;99897.88;;;11.48;60.34
10587;BME280;5341;47.606;7.576;2024-02-21T00:43:41;99902.41;;;11.47;59.65
10587;BME280;5341;47.606;7.576;2024-02-21T00:46:09;99903.41;;;11.46;59.87
10587;BME280;5341;47.606;7.576;2024-02-21T00:48:37;99898.03;;;11.46;60.21
10587;BME280;5341;47.606;7.576;2024-02-21T00:51:05;99894.53;;;11.45;60.02
10587;BME280;5341;47.606;7.576;2024-02-21T00:53:33;99892.84;;;11.44;59.92
10587;BME280;5341;47.606;7.576;2024-02-21T00:56:04;99882.13;;;11.44;60.20
10587;BME280;5341;47.606;7.576;2024-02-21T00:58:31;99881.28;;;11.44;60.14
10587;BME280;5341;47.606;7.576;2024-02-21T01:01:00;99882.28;;;11.43;60.38
10587;BME280;5341;47.606;7.576;2024-02-21T01:03:28;99874.44;;;11.41;60.07
10587;BME280;5341;47.606;7.576;2024-02-21T01:05:56;99876.25;;;11.41;59.95
10587;BME280;5341;47.606;7.576;2024-02-21T01:08:24;99878.09;;;11.40;59.78
10587;BME280;5341;47.606;7.576;2024-02-21T01:10:52;99872.91;;;11.39;60.08
10587;BME280;5341;47.606;7.576;2024-02-21T01:13:19;99867.56;;;11.39;60.33
10587;BME280;5341;47.606;7.576;2024-02-21T01:15:46;99868.53;;;11.38;60.04
10587;BME280;5341;47.606;7.576;2024-02-21T01:18:14;99860.50;;;11.38;60.29
10587;BME280;5341;47.606;7.576;2024-02-21T01:20:41;99855.28;;;11.36;60.21
10587;BME280;5341;47.606;7.576;2024-02-21T01:23:08;99852.78;;;11.35;60.20
10587;BME280;5341;47.606;7.576;2024-02-21T01:25:37;99851.09;;;11.34;60.06
10587;BME280;5341;47.606;7.576;2024-02-21T01:28:05;99839.56;;;11.33;59.87
10587;BME280;5341;47.606;7.576;2024-02-21T01:30:32;99829.84;;;11.32;60.26
10587;BME280;5341;47.606;7.576;2024-02-21T01:32:59;99830.84;;;11.31;59.80
10587;BME280;5341;47.606;7.576;2024-02-21T01:35:27;99827.50;;;11.29;59.77
10587;BME280;5341;47.606;7.576;2024-02-21T01:37:54;99827.50;;;11.29;59.40
10587;BME280;5341;47.606;7.576;2024-02-21T01:40:21;99826.66;;;11.29;59.94
10587;BME280;5341;47.606;7.576;2024-02-21T01:42:50;99816.94;;;11.28;59.44
10587;BME280;5341;47.606;7.576;2024-02-21T01:45:19;99817.09;;;11.26;59.55
10587;BME280;5341;47.606;7.576;2024-02-21T01:47:47;99802.03;;;11.25;59.82
10587;BME280;5341;47.606;7.576;2024-02-21T01:50:15;99803.88;;;11.25;59.49
10587;BME280;5341;47.606;7.576;2024-02-21T01:52:43;99791.47;;;11.24;59.44
10587;BME280;5341;47.606;7.576;2024-02-21T01:55:13;99786.28;;;11.22;59.53
10587;BME280;5341;47.606;7.576;2024-02-21T01:57:42;99774.91;;;11.20;59.39
10587;BME280;5341;47.606;7.576;2024-02-21T02:00:16;99780.25;;;11.20;59.61
10587;BME280;5341;47.606;7.576;2024-02-21T02:02:44;99780.44;;;11.19;59.15
10587;BME280;5341;47.606;7.576;2024-02-21T02:05:13;99787.78;;;11.17;59.76
10587;BME280;5341;47.606;7.576;2024-02-21T02:07:40;99780.59;;;11.17;59.49
10587;BME280;5341;47.606;7.576;2024-02-21T02:10:08;99775.41;;;11.15;59.56
10587;BME280;5341;47.606;7.576;2024-02-21T02:12:35;99770.03;;;11.15;59.76
10587;BME280;5341;47.606;7.576;2024-02-21T02:15:03;99768.38;;;11.14;59.28
10587;BME280;5341;47.606;7.576;2024-02-21T02:17:32;99763.00;;;11.14;59.98
10587;BME280;5341;47.606;7.576;2024-02-21T02:20:00;99760.34;;;11.14;59.78
10587;BME280;5341;47.606;7.576;2024-02-21T02:22:28;99754.13;;;11.14;59.39
10587;BME280;5341;47.606;7.576;2024-02-21T02:24:58;99754.97;;;11.14;59.78
10587;BME280;5341;47.606;7.576;2024-02-21T02:27:25;99761.31;;;11.13;60.16
10587;BME280;5341;47.606;7.576;2024-02-21T02:29:52;99755.94;;;11.13;60.03
10587;BME280;5341;47.606;7.576;2024-02-21T02:32:19;99748.09;;;11.12;59.88
10587;BME280;5341;47.606;7.576;2024-02-21T02:34:47;99751.59;;;11.12;59.98
10587;BME280;5341;47.606;7.576;2024-02-21T02:37:14;99738.38;;;11.11;59.53
10587;BME280;5341;47.606;7.576;2024-02-21T02:39:42;99754.44;;;11.11;59.72
10587;BME280;5341;47.606;7.576;2024-02-21T02:42:11;99749.94;;;11.11;59.71
10587;BME280;5341;47.606;7.576;2024-02-21T02:44:38;99729.69;;;11.09;60.04
10587;BME280;5341;47.606;7.576;2024-02-21T02:47:05;99725.34;;;11.08;59.78
10587;BME280;5341;47.606;7.576;2024-02-21T02:49:32;99715.47;;;11.08;59.74
10587;BME280;5341;47.606;7.576;2024-02-21T02:52:00;99710.28;;;11.07;59.75
10587;BME280;5341;47.606;7.576;2024-02-21T02:54:27;99705.91;;;11.06;59.49
10587;BME280;5341;47.606;7.576;2024-02-21T02:56:54;99704.25;;;11.05;59.64
10587;BME280;5341;47.606;7.576;2024-02-21T02:59:23;99694.38;;;11.05;60.04
10587;BME280;5341;47.606;7.576;2024-02-21T03:01:51;99694.53;;;11.04;59.43
10587;BME280;5341;47.606;7.576;2024-02-21T03:04:18;99688.34;;;11.03;59.67
10587;BME280;5341;47.606;7.576;2024-02-21T03:06:45;99681.47;;;11.01;59.77
10587;BME280;5341;47.606;7.576;2024-02-21T03:09:12;99687.81;;;11.00;60.34
10587;BME280;5341;47.606;7.576;2024-02-21T03:11:41;99688.81;;;10.99;60.12
10587;BME280;5341;47.606;7.576;2024-02-21T03:14:10;99682.78;;;10.97;59.79
10587;BME280;5341;47.606;7.576;2024-02-21T03:16:38;99682.97;;;10.95;59.88
10587;BME280;5341;47.606;7.576;2024-02-21T03:19:06;99667.25;;;10.92;59.71
10587;BME280;5341;47.606;7.576;2024-02-21T03:21:33;99670.91;;;10.91;60.11
10587;BME280;5341;47.606;7.576;2024-02-21T03:24:00;99668.38;;;10.90;59.58
10587;BME280;5341;47.606;7.576;2024-02-21T03:26:27;99664.03;;;10.89;59.43
10587;BME280;5341;47.606;7.576;2024-02-21T03:28:55;99666.88;;;10.87;59.76
10587;BME280;5341;47.606;7.576;2024-02-21T03:31:22;99663.34;;;10.86;59.40
10587;BME280;5341;47.606;7.576;2024-02-21T03:33:51;99659.00;;;10.85;59.62
10587;BME280;5341;47.606;7.576;2024-02-21T03:36:18;99657.50;;;10.83;59.93
10587;BME280;5341;47.606;7.576;2024-02-21T03:38:45;99649.63;;;10.81;60.10
10587;BME280;5341;47.606;7.576;2024-02-21T03:41:13;99653.31;;;10.80;59.96
10587;BME280;5341;47.606;7.576;2024-02-21T03:43:40;99650.81;;;10.79;59.88
10587;BME280;5341;47.606;7.576;2024-02-21T03:46:08;99646.41;;;10.78;59.45
10587;BME280;5341;47.606;7.576;2024-02-21T03:48:36;99648.44;;;10.76;60.00
10587;BME280;5341;47.606;7.576;2024-02-21T03:51:05;99643.06;;;10.76;59.78
10587;BME280;5341;47.606;7.576;2024-02-21T03:53:33;99641.56;;;10.73;60.13
10587;BME280;5341;47.606;7.576;2024-02-21T03:56:01;99637.22;;;10.72;59.63
10587;BME280;5341;47.606;7.576;2024-02-21T03:58:30;99636.53;;;10.70;59.33
10587;BME280;5341;47.606;7.576;2024-02-21T04:01:00;99631.34;;;10.69;60.02
10587;BME280;5341;47.606;7.576;2024-02-21T04:03:28;99626.19;;;10.67;59.53
10587;BME280;5341;47.606;7.576;2024-02-21T04:05:55;99627.31;;;10.65;59.86
10587;BME280;5341;47.606;7.576;2024-02-21T04:08:25;99625.47;;;10.65;60.08
10587;BME280;5341;47.606;7.576;2024-02-21T04:10:52;99624.81;;;10.63;59.79
10587;BME280;5341;47.606;7.576;2024-02-21T04:13:19;99619.63;;;10.62;59.94
10587;BME280;5341;47.606;7.576;2024-02-21T04:15:47;99619.63;;;10.62;59.68
10587;BME280;5341;47.606;7.576;2024-02-21T04:18:15;99624.28;;;10.60;59.56
10587;BME280;5341;47.606;7.576;2024-02-21T04:20:42;99624.47;;;10.58;59.77
10587;BME280;5341;47.606;7.576;2024-02-21T04:23:09;99609.59;;;10.55;60.04
10587;BME280;5341;47.606;7.576;2024-02-21T04:25:38;99599.88;;;10.54;59.52
10587;BME280;5341;47.606;7.576;2024-02-21T04:28:06;99600.84;;;10.53;59.32
10587;BME280;5341;47.606;7.576;2024-02-21T04:30:33;99598.34;;;10.52;59.89
10587;BME280;5341;47.606;7.576;2024-02-21T04:33:01;99601.19;;;10.50;59.61
10587;BME280;5341;47.606;7.576;2024-02-21T04:35:28;99597.84;;;10.48;59.86
10587;BME280;5341;47.606;7.576;2024-02-21T04:37:56;99600.69;;;10.47;59.85
10587;BME280;5341;47.606;7.576;2024-02-21T04:40:23;99598.16;;;10.45;59.87
10587;BME280;5341;47.606;7.576;2024-02-21T04:42:52;99595.81;;;10.42;59.72
10587;BME280;5341;47.606;7.576;2024-02-21T04:45:19;99591.59;;;10.40;59.61
10587;BME280;5341;47.606;7.576;2024-02-21T04:47:47;99589.09;;;10.38;59.98
10587;BME280;5341;47.606;7.576;2024-02-21T04:50:14;99594.78;;;10.35;59.62
10587;BME280;5341;47.606;7.576;2024-02-21T04:52:42;99597.78;;;10.32;59.28
10587;BME280;5341;47.606;7.576;2024-02-21T04:55:10;99597.09;;;10.30;59.38
10587;BME280;5341;47.606;7.576;2024-02-21T04:57:37;99600.91;;;10.27;59.49
10587;BME280;5341;47.606;7.576;2024-02-21T05:00:07;99601.06;;;10.26;59.07
10587;BME280;5341;47.606;7.576;2024-02-21T05:02:35;99594.06;;;10.25;59.35
10587;BME280;5341;47.606;7.576;2024-02-21T05:05:02;99581.69;;;10.24;58.98
10587;BME280;5341;47.606;7.576;2024-02-21T05:07:30;99568.50;;;10.22;59.70
10587;BME280;5341;47.606;7.576;2024-02-21T05:09:58;99566.13;;;10.19;59.72
10587;BME280;5341;47.606;7.576;2024-02-21T05:12:25;99570.63;;;10.19;59.70
10587;BME280;5341;47.606;7.576;2024-02-21T05:14:52;99567.41;;;10.15;59.15
10587;BME280;5341;47.606;7.576;2024-02-21T05:17:21;99564.06;;;10.13;59.46
10587;BME280;5341;47.606;7.576;2024-02-21T05:19:48;99563.22;;;10.13;59.60
10587;BME280;5341;47.606;7.576;2024-02-21T05:22:15;99559.88;;;10.11;59.55
10587;BME280;5341;47.606;7.576;2024-02-21T05:24:43;99559.03;;;10.10;59.73
10587;BME280;5341;47.606;7.576;2024-02-21T05:27:10;99557.38;;;10.09;59.90
10587;BME280;5341;47.606;7.576;2024-02-21T05:29:37;99550.34;;;10.08;59.32
10587;BME280;5341;47.606;7.576;2024-02-21T05:32:05;99544.00;;;10.09;59.22
10587;BME280;5341;47.606;7.576;2024-02-21T05:34:34;99548.50;;;10.09;59.25
10587;BME280;5341;47.606;7.576;2024-02-21T05:37:01;99552.19;;;10.08;59.57
10587;BME280;5341;47.606;7.576;2024-02-21T05:39:28;99535.31;;;10.07;59.20
10587;BME280;5341;47.606;7.576;2024-02-21T05:41:56;99534.63;;;10.05;59.92
10587;BME280;5341;47.606;7.576;2024-02-21T05:44:23;99534.63;;;10.05;59.71
10587;BME280;5341;47.606;7.576;2024-02-21T05:46:52;99531.09;;;10.05;59.63
10587;BME280;5341;47.606;7.576;2024-02-21T05:49:19;99530.28;;;10.04;59.65
10587;BME280;5341;47.606;7.576;2024-02-21T05:51:47;99540.13;;;10.04;59.15
10587;BME280;5341;47.606;7.576;2024-02-21T05:54:15;99536.63;;;10.03;59.37
10587;BME280;5341;47.606;7.576;2024-02-21T05:56:44;99535.78;;;10.03;59.69
10587;BME280;5341;47.606;7.576;2024-02-21T05:59:12;99536.78;;;10.02;59.55
10587;BME280;5341;47.606;7.576;2024-02-21T06:01:40;99535.94;;;10.01;59.59
10587;BME280;5341;47.606;7.576;2024-02-21T06:04:06;99539.63;;;10.00;59.43
10587;BME280;5341;47.606;7.576;2024-02-21T06:06:33;99544.13;;;9.99;59.54
10587;BME280;5341;47.606;7.576;2024-02-21T06:09:02;99545.94;;;9.99;59.52
10587;BME280;5341;47.606;7.576;2024-02-21T06:11:30;99546.13;;;9.97;59.65
10587;BME280;5341;47.606;7.576;2024-02-21T06:13:57;99543.44;;;9.97;59.24
10587;BME280;5341;47.606;7.576;2024-02-21T06:16:24;99538.09;;;9.97;59.66
10587;BME280;5341;47.606;7.576;2024-02-21T06:18:52;99536.44;;;9.96;59.58
10587;BME280;5341;47.606;7.576;2024-02-21T06:21:19;99534.75;;;9.95;59.22
10587;BME280;5341;47.606;7.576;2024-02-21T06:23:46;99526.91;;;9.94;59.48
10587;BME280;5341;47.606;7.576;2024-02-21T06:26:15;99534.09;;;9.93;58.92
10587;BME280;5341;47.606;7.576;2024-02-21T06:28:43;99534.09;;;9.93;59.08
10587;BME280;5341;47.606;7.576;2024-02-21T06:31:12;99534.22;;;9.92;59.41
10587;BME280;5341;47.606;7.576;2024-02-21T06:33:40;99530.72;;;9.91;59.52
10587;BME280;5341;47.606;7.576;2024-02-21T06:36:08;99522.03;;;9.89;59.24
10587;BME280;5341;47.606;7.576;2024-02-21T06:38:36;99522.19;;;9.88;59.65
10587;BME280;5341;47.606;7.576;2024-02-21T06:41:03;99515.00;;;9.88;59.04
10587;BME280;5341;47.606;7.576;2024-02-21T06:43:32;99508.81;;;9.88;58.91
10587;BME280;5341;47.606;7.576;2024-02-21T06:45:59;99505.31;;;9.87;59.06
10587;BME280;5341;47.606;7.576;2024-02-21T06:48:27;99506.31;;;9.86;59.55
10587;BME280;5341;47.606;7.576;2024-02-21T06:50:55;99511.66;;;9.86;59.18
10587;BME280;5341;47.606;7.576;2024-02-21T06:53:22;99508.97;;;9.86;59.11
10587;BME280;5341;47.606;7.576;2024-02-21T06:55:49;99504.66;;;9.85;59.25
10587;BME280;5341;47.606;7.576;2024-02-21T06:58:17;99509.16;;;9.85;58.85
10587;BME280;5341;47.606;7.576;2024-02-21T07:00:45;99509.97;;;9.85;59.01
10587;BME280;5341;47.606;7.576;2024-02-21T07:03:13;99503.81;;;9.85;59.27
10587;BME280;5341;47.606;7.576;2024-02-21T07:05:40;99512.66;;;9.85;59.60
10587;BME280;5341;47.606;7.576;2024-02-21T07:08:08;99509.97;;;9.85;59.48
10587;BME280;5341;47.606;7.576;2024-02-21T07:10:35;99501.97;;;9.85;59.54
10587;BME280;5341;47.606;7.576;2024-02-21T07:13:03;99500.13;;;9.86;59.44
10587;BME280;5341;47.606;7.576;2024-02-21T07:15:30;99499.97;;;9.87;59.33
10587;BME280;5341;47.606;7.576;2024-02-21T07:18:00;99498.31;;;9.86;59.79
10587;BME280;5341;47.606;7.576;2024-02-21T07:20:27;99501.66;;;9.88;59.67
10587;BME280;5341;47.606;7.576;2024-02-21T07:22:54;99499.97;;;9.87;59.75
10587;BME280;5341;47.606;7.576;2024-02-21T07:25:22;99500.81;;;9.88;59.26
10587;BME280;5341;47.606;7.576;2024-02-21T07:27:49;99499.81;;;9.89;59.42
10587;BME280;5341;47.606;7.576;2024-02-21T07:30:16;99497.13;;;9.89;59.35
10587;BME280;5341;47.606;7.576;2024-02-21T07:32:44;99493.47;;;9.90;59.22
10587;BME280;5341;47.606;7.576;2024-02-21T07:35:13;99494.31;;;9.90;59.64
10587;BME280;5341;47.606;7.576;2024-02-21T07:37:40;99495.13;;;9.91;59.86
10587;BME280;5341;47.606;7.576;2024-02-21T07:40:12;99488.78;;;9.92;59.63
10587;BME280;5341;47.606;7.576;2024-02-21T07:42:40;99496.69;;;9.93;59.42
10587;BME280;5341;47.606;7.576;2024-02-21T07:45:08;99491.34;;;9.93;59.48
10587;BME280;5341;47.606;7.576;2024-02-21T07:47:36;99491.16;;;9.95;59.33
10587;BME280;5341;47.606;7.576;2024-02-21T07:50:05;99487.50;;;9.96;59.09
10587;BME280;5341;47.606;7.576;2024-02-21T07:52:34;99481.16;;;9.97;59.41
10587;BME280;5341;47.606;7.576;2024-02-21T07:55:02;99484.66;;;9.97;59.56
10587;BME280;5341;47.606;7.576;2024-02-21T07:57:29;99472.97;;;9.98;59.08
10587;BME280;5341;47.606;7.576;2024-02-21T07:59:57;99477.31;;;9.99;59.61
10587;BME280;5341;47.606;7.576;2024-02-21T08:02:24;99473.66;;;10.01;59.75
10587;BME280;5341;47.606;7.576;2024-02-21T08:04:52;99471.63;;;10.03;59.20
10587;BME280;5341;47.606;7.576;2024-02-21T08:07:19;99473.31;;;10.04;59.16
10587;BME280;5341;47.606;7.576;2024-02-21T08:09:48;99473.16;;;10.05;59.51
10587;BME280;5341;47.606;7.576;2024-02-21T08:12:15;99472.19;;;10.06;59.46
10587;BME280;5341;47.606;7.576;2024-02-21T08:14:43;99473.69;;;10.09;59.82
10587;BME280;5341;47.606;7.576;2024-02-21T08:17:10;99477.88;;;10.11;59.77
10587;BME280;5341;47.606;7.576;2024-02-21T08:19:37;99470.50;;;10.13;60.48
10587;BME280;5341;47.606;7.576;2024-02-21T08:22:04;99467.69;;;10.15;60.55
10587;BME280;5341;47.606;7.576;2024-02-21T08:24:32;99469.19;;;10.17;60.23
10587;BME280;5341;47.606;7.576;2024-02-21T08:27:01;99466.06;;;10.22;60.32
10587;BME280;5341;47.606;7.576;2024-02-21T08:29:28;99468.41;;;10.25;59.85
10587;BME280;5341;47.606;7.576;2024-02-21T08:31:55;99471.59;;;10.28;60.38
10587;BME280;5341;47.606;7.576;2024-02-21T08:34:23;99467.63;;;10.33;59.77
10587;BME280;5341;47.606;7.576;2024-02-21T08:36:50;99461.94;;;10.36;60.23
10587;BME280;5341;47.606;7.576;2024-02-21T08:39:17;99461.59;;;10.39;60.35
10587;BME280;5341;47.606;7.576;2024-02-21T08:41:44;99467.47;;;10.42;60.30
10587;BME280;5341;47.606;7.576;2024-02-21T08:44:13;99460.78;;;10.46;59.88
10587;BME280;5341;47.606;7.576;2024-02-21T08:46:40;99463.97;;;10.50;59.94
10587;BME280;5341;47.606;7.576;2024-02-21T08:49:10;99462.78;;;10.52;59.41
10587;BME280;5341;47.606;7.576;2024-02-21T08:51:37;99448.94;;;10.57;59.35
10587;BME280;5341;47.606;7.576;2024-02-21T08:54:04;99445.09;;;10.60;59.27
10587;BME280;5341;47.606;7.576;2024-02-21T08:56:32;99443.75;;;10.64;59.38
10587;BME280;5341;47.606;7.576;2024-02-21T08:58:59;99442.59;;;10.66;59.26
10587;BME280;5341;47.606;7.576;2024-02-21T09:01:28;99445.59;;;10.71;59.08
10587;BME280;5341;47.606;7.576;2024-02-21T09:03:55;99444.44;;;10.74;58.79
10587;BME280;5341;47.606;7.576;2024-02-21T09:06:23;99431.56;;;10.77;59.25
10587;BME280;5341;47.606;7.576;2024-02-21T09:08:50;99431.25;;;10.80;59.10
10587;BME280;5341;47.606;7.576;2024-02-21T09:11:17;99430.06;;;10.83;59.42
10587;BME280;5341;47.606;7.576;2024-02-21T09:13:44;99426.88;;;10.88;58.58
10587;BME280;5341;47.606;7.576;2024-02-21T09:16:12;99425.69;;;10.90;58.66
10587;BME280;5341;47.606;7.576;2024-02-21T09:18:41;99423.53;;;10.94;58.68
10587;BME280;5341;47.606;7.576;2024-02-21T09:21:08;99420.53;;;10.97;58.49
10587;BME280;5341;47.606;7.576;2024-02-21T09:23:35;99415.81;;;10.99;58.67
10587;BME280;5341;47.606;7.576;2024-02-21T09:26:03;99410.13;;;11.02;58.13
10587;BME280;5341;47.606;7.576;2024-02-21T09:28:30;99407.97;;;11.05;58.58
10587;BME280;5341;47.606;7.576;2024-02-21T09:31:00;99405.78;;;11.09;58.54
10587;BME280;5341;47.606;7.576;2024-02-21T09:33:27;99401.94;;;11.11;59.07
10587;BME280;5341;47.606;7.576;2024-02-21T09:35:56;99405.13;;;11.15;58.73
10587;BME280;5341;47.606;7.576;2024-02-21T09:38:23;99402.09;;;11.18;58.54
10587;BME280;5341;47.606;7.576;2024-02-21T09:40:57;99410.63;;;11.22;59.02
10587;BME280;5341;47.606;7.576;2024-02-21T09:43:26;99408.41;;;11.25;58.54
10587;BME280;5341;47.606;7.576;2024-02-21T09:45:55;99409.59;;;11.31;58.41
10587;BME280;5341;47.606;7.576;2024-02-21T09:48:33;99402.03;;;11.34;58.31
10587;BME280;5341;47.606;7.576;2024-02-21T09:51:07;99401.69;;;11.37;58.49
10587;BME280;5341;47.606;7.576;2024-02-21T09:53:37;99406.56;;;11.42;58.01
10587;BME280;5341;47.606;7.576;2024-02-21T09:56:07;99399.19;;;11.44;58.46
10587;BME280;5341;47.606;7.576;2024-02-21T09:58:36;99396.81;;;11.49;58.41
10587;BME280;5341;47.606;7.576;2024-02-21T10:01:04;99390.13;;;11.53;58.47
10587;BME280;5341;47.606;7.576;2024-02-21T10:03:32;99387.09;;;11.56;57.88
10587;BME280;5341;47.606;7.576;2024-02-21T10:06:00;99383.03;;;11.60;58.03
10587;BME280;5341;47.606;7.576;2024-02-21T10:08:29;99374.50;;;11.65;57.76
10587;BME280;5341;47.606;7.576;2024-02-21T10:10:56;99372.31;;;11.68;58.20
10587;BME280;5341;47.606;7.576;2024-02-21T10:13:26;99376.94;;;11.74;57.62
10587;BME280;5341;47.606;7.576;2024-02-21T10:16:01;99374.63;;;11.80;58.13
10587;BME280;5341;47.606;7.576;2024-02-21T10:18:29;99374.09;;;11.84;57.92
10587;BME280;5341;47.606;7.576;2024-02-21T10:21:02;99371.56;;;11.91;58.19
10587;BME280;5341;47.606;7.576;2024-02-21T10:23:41;99368.16;;;11.97;57.87
10587;BME280;5341;47.606;7.576;2024-02-21T10:26:08;99362.47;;;12.00;57.58
10587;BME280;5341;47.606;7.576;2024-02-21T10:28:36;99367.13;;;12.06;57.89
10587;BME280;5341;47.606;7.576;2024-02-21T10:31:08;99362.91;;;12.12;57.72
10587;BME280;5341;47.606;7.576;2024-02-21T10:33:36;99363.19;;;12.17;57.90
10587;BME280;5341;47.606;7.576;2024-02-21T10:36:07;99358.13;;;12.22;57.85
10587;BME280;5341;47.606;7.576;2024-02-21T10:38:37;99355.75;;;12.27;57.63
10587;BME280;5341;47.606;7.576;2024-02-21T10:41:05;99349.66;;;12.33;57.79
10587;BME280;5341;47.606;7.576;2024-02-21T10:43:38;99348.97;;;12.39;57.59
10587;BME280;5341;47.606;7.576;2024-02-21T10:46:08;99335.84;;;12.44;57.54
10587;BME280;5341;47.606;7.576;2024-02-21T10:48:47;99334.94;;;12.52;57.87
10587;BME280;5341;47.606;7.576;2024-02-21T10:51:17;99329.03;;;12.56;57.60
10587;BME280;5341;47.606;7.576;2024-02-21T10:53:53;99329.50;;;12.60;57.10
10587;BME280;5341;47.606;7.576;2024-02-21T10:56:28;99320.72;;;12.66;57.26
10587;BME280;5341;47.606;7.576;2024-02-21T10:58:58;99312.94;;;12.71;56.87
10587;BME280;5341;47.606;7.576;2024-02-21T11:01:26;99305.84;;;12.78;57.26
10587;BME280;5341;47.606;7.576;2024-02-21T11:03:59;99303.09;;;12.86;57.27
10587;BME280;5341;47.606;7.576;2024-02-21T11:06:29;99297.81;;;12.93;57.52
10587;BME280;5341;47.606;7.576;2024-02-21T11:09:02;99296.25;;;12.99;56.65
10587;BME280;5341;47.606;7.576;2024-02-21T11:11:33;99291.53;;;13.01;56.53
10587;BME280;5341;47.606;7.576;2024-02-21T11:14:05;99287.44;;;13.05;56.48
10587;BME280;5341;47.606;7.576;2024-02-21T11:16:36;99284.38;;;13.08;56.02
10587;BME280;5341;47.606;7.576;2024-02-21T11:19:09;99284.69;;;13.13;55.99
10587;BME280;5341;47.606;7.576;2024-02-21T11:21:37;99277.91;;;13.17;55.95
10587;BME280;5341;47.606;7.576;2024-02-21T11:24:09;99263.28;;;13.19;55.50
10587;BME280;5341;47.606;7.576;2024-02-21T11:26:37;99256.75;;;13.22;55.28
10587;BME280;5341;47.606;7.576;2024-02-21T11:29:05;99244.59;;;13.26;55.14
10587;BME280;5341;47.606;7.576;2024-02-21T11:31:41;99239.66;;;13.30;54.85
10587;BME280;5341;47.606;7.576;2024-02-21T11:34:09;99223.19;;;13.33;54.75
10587;BME280;5341;47.606;7.576;2024-02-21T11:36:46;99221.16;;;13.35;54.53
10587;BME280;5341;47.606;7.576;2024-02-21T11:39:25;99220.97;;;13.36;54.40
10587;BME280;5341;47.606;7.576;2024-02-21T11:42:03;99214.19;;;13.40;54.42
10587;BME280;5341;47.606;7.576;2024-02-21T11:44:31;99196.84;;;13.43;54.54
10587;BME280;5341;47.606;7.576;2024-02-21T11:47:01;99187.59;;;13.45;54.11
10587;BME280;5341;47.606;7.576;2024-02-21T11:49:37;99184.72;;;13.47;54.25
10587;BME280;5341;47.606;7.576;2024-02-21T11:52:08;99177.09;;;13.51;53.77
10587;BME280;5341;47.606;7.576;2024-02-21T11:54:38;99176.69;;;13.54;53.61
10587;BME280;5341;47.606;7.576;2024-02-21T11:57:05;99171.97;;;13.56;53.46
10587;BME280;5341;47.606;7.576;2024-02-21T11:59:36;99176.31;;;13.57;53.02
10587;BME280;5341;47.606;7.576;2024-02-21T12:02:16;99171.59;;;13.59;53.13
10587;BME280;5341;47.606;7.576;2024-02-21T12:04:50;99164.63;;;13.64;53.02
10587;BME280;5341;47.606;7.576;2024-02-21T12:07:18;99149.75;;;13.68;53.16
10587;BME280;5341;47.606;7.576;2024-02-21T12:09:48;99151.25;;;13.71;52.89
10587;BME280;5341;47.606;7.576;2024-02-21T12:12:20;99138.88;;;13.76;52.82
10587;BME280;5341;47.606;7.576;2024-02-21T12:15:01;99137.94;;;13.84;52.95
10587;BME280;5341;47.606;7.576;2024-02-21T12:17:35;99125.75;;;13.88;52.98
10587;BME280;5341;47.606;7.576;2024-02-21T12:20:10;99124.16;;;13.94;52.76
10587;BME280;5341;47.606;7.576;2024-02-21T12:22:45;99116.72;;;13.96;52.60
10587;BME280;5341;47.606;7.576;2024-02-21T12:25:37;99105.38;;;14.00;52.52
10587;BME280;5341;47.606;7.576;2024-02-21T12:28:21;99108.31;;;14.05;52.28
10587;BME280;5341;47.606;7.576;2024-02-21T12:30:50;99107.91;;;14.08;51.77
10587;BME280;5341;47.606;7.576;2024-02-21T12:33:19;99089.53;;;14.12;51.73
10587;BME280;5341;47.606;7.576;2024-02-21T12:35:51;99094.31;;;14.17;51.60
10587;BME280;5341;47.606;7.576;2024-02-21T12:38:25;99092.69;;;14.22;51.73
10587;BME280;5341;47.606;7.576;2024-02-21T12:41:01;99079.47;;;14.27;51.42
10587;BME280;5341;47.606;7.576;2024-02-21T12:43:43;99076.22;;;14.32;51.52
10587;BME280;5341;47.606;7.576;2024-02-21T12:46:20;99067.72;;;14.35;51.60
10587;BME280;5341;47.606;7.576;2024-02-21T12:49:02;99057.19;;;14.40;51.49
10587;BME280;5341;47.606;7.576;2024-02-21T12:51:36;99057.84;;;14.42;51.46
10587;BME280;5341;47.606;7.576;2024-02-21T12:54:12;99049.41;;;14.45;51.36
10587;BME280;5341;47.606;7.576;2024-02-21T12:56:47;99048.16;;;14.48;51.19
10587;BME280;5341;47.606;7.576;2024-02-21T12:59:18;99036.16;;;14.50;51.29
10587;BME280;5341;47.606;7.576;2024-02-21T13:01:48;99033.72;;;14.55;51.51
10587;BME280;5341;47.606;7.576;2024-02-21T13:04:19;99028.97;;;14.57;51.49
10587;BME280;5341;47.606;7.576;2024-02-21T13:06:51;99026.28;;;14.64;51.67
10587;BME280;5341;47.606;7.576;2024-02-21T13:09:24;99019.28;;;14.70;51.48
10587;BME280;5341;47.606;7.576;2024-02-21T13:12:03;99011.19;;;14.76;51.82
10587;BME280;5341;47.606;7.576;2024-02-21T13:14:34;99005.44;;;14.79;51.90
10587;BME280;5341;47.606;7.576;2024-02-21T13:17:05;98999.63;;;14.82;51.69
10587;BME280;5341;47.606;7.576;2024-02-21T13:19:33;98997.34;;;14.86;51.56
10587;BME280;5341;47.606;7.576;2024-02-21T13:22:00;98989.69;;;14.89;51.54